sensor_id;sensor_type;location;lat;lon;timestamp;temperature;humidity
1429;DHT22;708;51.442;7.016;2023-02-26T00:00:06;3.00;99.90
1429;DHT22;708;51.442;7.016;2023-02-26T00:02:36;2.90;99.90
1429;DHT22;708;51.442;7.016;2023-02-26T00:05:03;2.80;99.90
1429;DHT22;708;51.442;7.016;2023-02-26T00:07:30;2.70;99.90
1429;DHT22;708;51.442;7.016;2023-02-26T00:09:57;2.60;99.90
1429;DHT22;708;51.442;7.016;2023-02-26T00:12:24;2.60;99.90
1429;DHT22;708;51.442;7.016;2023-02-26T00:14:51;2.50;99.90
1429;DHT22;708;51.442;7.016;2023-02-26T00:17:36;2.50;99.90
1429;DHT22;708;51.442;7.016;2023-02-26T00:20:06;2.40;99.90
1429;DHT22;708;51.442;7.016;2023-02-26T00:22:34;2.40;99.90
1429;DHT22;708;51.442;7.016;2023-02-26T00:25:01;2.40;99.90
1429;DHT22;708;51.442;7.016;2023-02-26T00:27:27;2.40;99.90
1429;DHT22;708;51.442;7.016;2023-02-26T00:29:55;2.40;99.90
1429;DHT22;708;51.442;7.016;2023-02-26T00:32:22;2.40;99.90
1429;DHT22;708;51.442;7.016;2023-02-26T00:34:51;2.40;99.90
1429;DHT22;708;51.442;7.016;2023-02-26T00:37:37;2.40;99.90
1429;DHT22;708;51.442;7.016;2023-02-26T00:40:14;2.40;99.90
1429;DHT22;708;51.442;7.016;2023-02-26T00:42:45;2.40;99.90
1429;DHT22;708;51.442;7.016;2023-02-26T00:45:13;2.40;99.90
1429;DHT22;708;51.442;7.016;2023-02-26T00:47:45;2.50;99.90
1429;DHT22;708;51.442;7.016;2023-02-26T00:50:17;2.50;99.90
1429;DHT22;708;51.442;7.016;2023-02-26T00:52:56;2.60;99.90
1429;DHT22;708;51.442;7.016;2023-02-26T00:55:24;2.70;99.90
1429;DHT22;708;51.442;7.016;2023-02-26T00:57:51;2.80;99.90
1429;DHT22;708;51.442;7.016;2023-02-26T01:00:19;2.80;99.90
1429;DHT22;708;51.442;7.016;2023-02-26T01:02:46;2.80;99.90
1429;DHT22;708;51.442;7.016;2023-02-26T01:05:16;2.80;99.90
1429;DHT22;708;51.442;7.016;2023-02-26T01:07:46;2.80;99.90
1429;DHT22;708;51.442;7.016;2023-02-26T01:10:16;2.90;99.90
1429;DHT22;708;51.442;7.016;2023-02-26T01:12:44;2.90;99.90
1429;DHT22;708;51.442;7.016;2023-02-26T01:15:11;3.00;99.90
1429;DHT22;708;51.442;7.016;2023-02-26T01:17:43;3.00;99.90
1429;DHT22;708;51.442;7.016;2023-02-26T01:20:18;3.00;99.90
1429;DHT22;708;51.442;7.016;2023-02-26T01:22:49;3.10;99.90
1429;DHT22;708;51.442;7.016;2023-02-26T01:25:22;3.10;99.90
1429;DHT22;708;51.442;7.016;2023-02-26T01:27:50;3.00;99.90
1429;DHT22;708;51.442;7.016;2023-02-26T01:30:18;3.00;99.90
1429;DHT22;708;51.442;7.016;2023-02-26T01:32:49;3.00;99.90
1429;DHT22;708;51.442;7.016;2023-02-26T01:35:30;3.00;99.90
1429;DHT22;708;51.442;7.016;2023-02-26T01:38:03;3.00;99.90
1429;DHT22;708;51.442;7.016;2023-02-26T01:40:54;2.90;99.90
1429;DHT22;708;51.442;7.016;2023-02-26T01:43:31;2.90;99.90
1429;DHT22;708;51.442;7.016;2023-02-26T01:46:04;3.00;99.90
1429;DHT22;708;51.442;7.016;2023-02-26T01:48:37;2.90;99.90
1429;DHT22;708;51.442;7.016;2023-02-26T01:51:05;2.80;99.90
1429;DHT22;708;51.442;7.016;2023-02-26T01:53:33;2.70;99.90
1429;DHT22;708;51.442;7.016;2023-02-26T01:56:04;2.70;99.90
1429;DHT22;708;51.442;7.016;2023-02-26T01:58:33;2.70;99.90
1429;DHT22;708;51.442;7.016;2023-02-26T02:01:01;2.50;99.90
1429;DHT22;708;51.442;7.016;2023-02-26T02:03:30;2.40;99.90
1429;DHT22;708;51.442;7.016;2023-02-26T02:06:01;2.40;99.90
1429;DHT22;708;51.442;7.016;2023-02-26T02:08:31;2.40;99.90
1429;DHT22;708;51.442;7.016;2023-02-26T02:11:00;2.40;99.90
1429;DHT22;708;51.442;7.016;2023-02-26T02:13:36;2.30;99.90
1429;DHT22;708;51.442;7.016;2023-02-26T02:16:14;2.20;99.90
1429;DHT22;708;51.442;7.016;2023-02-26T02:18:48;2.10;99.90
1429;DHT22;708;51.442;7.016;2023-02-26T02:21:49;2.00;99.90
1429;DHT22;708;51.442;7.016;2023-02-26T02:24:25;2.00;99.90
1429;DHT22;708;51.442;7.016;2023-02-26T02:26:58;1.90;99.90
1429;DHT22;708;51.442;7.016;2023-02-26T02:32:33;1.80;99.90
1429;DHT22;708;51.442;7.016;2023-02-26T02:35:11;1.80;99.90
1429;DHT22;708;51.442;7.016;2023-02-26T02:37:42;1.70;99.90
1429;DHT22;708;51.442;7.016;2023-02-26T02:40:14;1.70;99.90
1429;DHT22;708;51.442;7.016;2023-02-26T02:42:45;1.70;99.90
1429;DHT22;708;51.442;7.016;2023-02-26T02:45:18;1.70;99.90
1429;DHT22;708;51.442;7.016;2023-02-26T02:47:52;1.70;99.90
1429;DHT22;708;51.442;7.016;2023-02-26T02:50:24;1.60;99.90
1429;DHT22;708;51.442;7.016;2023-02-26T02:52:56;1.60;99.90
1429;DHT22;708;51.442;7.016;2023-02-26T02:55:27;1.60;99.90
1429;DHT22;708;51.442;7.016;2023-02-26T02:57:57;1.60;99.90
1429;DHT22;708;51.442;7.016;2023-02-26T03:00:26;1.60;99.90
1429;DHT22;708;51.442;7.016;2023-02-26T03:03:00;1.50;99.90
1429;DHT22;708;51.442;7.016;2023-02-26T03:05:29;1.50;99.90
1429;DHT22;708;51.442;7.016;2023-02-26T03:07:58;1.50;99.90
1429;DHT22;708;51.442;7.016;2023-02-26T03:10:26;1.50;99.90
1429;DHT22;708;51.442;7.016;2023-02-26T03:12:53;1.50;99.90
1429;DHT22;708;51.442;7.016;2023-02-26T03:15:25;1.50;99.90
1429;DHT22;708;51.442;7.016;2023-02-26T03:18:02;1.50;99.90
1429;DHT22;708;51.442;7.016;2023-02-26T03:20:34;1.50;99.90
1429;DHT22;708;51.442;7.016;2023-02-26T03:23:08;1.50;99.90
1429;DHT22;708;51.442;7.016;2023-02-26T03:25:43;1.50;99.90
1429;DHT22;708;51.442;7.016;2023-02-26T03:28:17;1.40;99.90
1429;DHT22;708;51.442;7.016;2023-02-26T03:30:49;1.40;99.90
1429;DHT22;708;51.442;7.016;2023-02-26T03:33:23;1.40;99.90
1429;DHT22;708;51.442;7.016;2023-02-26T03:35:54;1.40;99.90
1429;DHT22;708;51.442;7.016;2023-02-26T03:38:26;1.40;99.90
1429;DHT22;708;51.442;7.016;2023-02-26T03:40:58;1.40;99.90
1429;DHT22;708;51.442;7.016;2023-02-26T03:43:30;1.30;99.90
1429;DHT22;708;51.442;7.016;2023-02-26T03:46:03;1.30;99.90
1429;DHT22;708;51.442;7.016;2023-02-26T03:48:34;1.30;99.90
1429;DHT22;708;51.442;7.016;2023-02-26T03:51:06;1.30;99.90
1429;DHT22;708;51.442;7.016;2023-02-26T03:53:39;1.30;99.90
1429;DHT22;708;51.442;7.016;2023-02-26T03:56:13;1.30;99.90
1429;DHT22;708;51.442;7.016;2023-02-26T03:58:41;1.20;99.90
1429;DHT22;708;51.442;7.016;2023-02-26T04:01:13;1.20;99.90
1429;DHT22;708;51.442;7.016;2023-02-26T04:03:48;1.20;99.90
1429;DHT22;708;51.442;7.016;2023-02-26T04:06:15;1.10;99.90
1429;DHT22;708;51.442;7.016;2023-02-26T04:08:44;1.10;1.00
1429;DHT22;708;51.442;7.016;2023-02-26T04:11:14;1.10;1.00
1429;DHT22;708;51.442;7.016;2023-02-26T04:13:42;1.10;1.00
1429;DHT22;708;51.442;7.016;2023-02-26T04:16:09;1.10;1.00
1429;DHT22;708;51.442;7.016;2023-02-26T04:18:36;1.00;1.00
1429;DHT22;708;51.442;7.016;2023-02-26T04:21:05;1.00;1.00
1429;DHT22;708;51.442;7.016;2023-02-26T04:23:32;1.00;1.00
1429;DHT22;708;51.442;7.016;2023-02-26T04:25:58;1.00;1.00
1429;DHT22;708;51.442;7.016;2023-02-26T04:28:25;1.00;1.00
1429;DHT22;708;51.442;7.016;2023-02-26T04:30:52;0.90;1.00
1429;DHT22;708;51.442;7.016;2023-02-26T04:33:19;0.90;1.00
1429;DHT22;708;51.442;7.016;2023-02-26T04:35:45;0.90;1.00
1429;DHT22;708;51.442;7.016;2023-02-26T04:38:14;0.90;1.00
1429;DHT22;708;51.442;7.016;2023-02-26T04:40:40;0.80;1.00
1429;DHT22;708;51.442;7.016;2023-02-26T04:43:08;0.90;1.00
1429;DHT22;708;51.442;7.016;2023-02-26T04:45:34;0.90;1.00
1429;DHT22;708;51.442;7.016;2023-02-26T04:48:01;0.80;1.00
1429;DHT22;708;51.442;7.016;2023-02-26T04:50:28;0.80;1.00
1429;DHT22;708;51.442;7.016;2023-02-26T04:52:54;0.90;1.00
1429;DHT22;708;51.442;7.016;2023-02-26T04:55:22;0.90;1.00
1429;DHT22;708;51.442;7.016;2023-02-26T04:57:49;0.90;1.00
1429;DHT22;708;51.442;7.016;2023-02-26T05:00:17;0.90;1.00
1429;DHT22;708;51.442;7.016;2023-02-26T05:02:44;0.80;1.00
1429;DHT22;708;51.442;7.016;2023-02-26T05:05:11;0.80;1.00
1429;DHT22;708;51.442;7.016;2023-02-26T05:07:37;0.80;1.00
1429;DHT22;708;51.442;7.016;2023-02-26T05:10:05;0.80;1.00
1429;DHT22;708;51.442;7.016;2023-02-26T05:12:33;0.70;1.00
1429;DHT22;708;51.442;7.016;2023-02-26T05:15:00;0.70;1.00
1429;DHT22;708;51.442;7.016;2023-02-26T05:17:27;0.70;1.00
1429;DHT22;708;51.442;7.016;2023-02-26T05:19:54;0.60;1.00
1429;DHT22;708;51.442;7.016;2023-02-26T05:22:20;0.60;1.00
1429;DHT22;708;51.442;7.016;2023-02-26T05:24:47;0.50;1.00
1429;DHT22;708;51.442;7.016;2023-02-26T05:27:15;0.50;1.00
1429;DHT22;708;51.442;7.016;2023-02-26T05:29:43;0.50;1.00
1429;DHT22;708;51.442;7.016;2023-02-26T05:32:11;0.40;1.00
1429;DHT22;708;51.442;7.016;2023-02-26T05:34:37;0.40;1.00
1429;DHT22;708;51.442;7.016;2023-02-26T05:37:04;0.40;9.20
1429;DHT22;708;51.442;7.016;2023-02-26T05:39:31;0.40;9.00
1429;DHT22;708;51.442;7.016;2023-02-26T05:41:58;0.40;11.70
1429;DHT22;708;51.442;7.016;2023-02-26T05:44:25;0.30;8.40
1429;DHT22;708;51.442;7.016;2023-02-26T05:46:54;0.30;12.00
1429;DHT22;708;51.442;7.016;2023-02-26T05:49:20;0.30;29.70
1429;DHT22;708;51.442;7.016;2023-02-26T05:51:47;0.30;43.30
1429;DHT22;708;51.442;7.016;2023-02-26T05:54:14;0.30;24.20
1429;DHT22;708;51.442;7.016;2023-02-26T05:56:41;0.30;2.40
1429;DHT22;708;51.442;7.016;2023-02-26T05:59:08;0.30;20.00
1429;DHT22;708;51.442;7.016;2023-02-26T06:01:35;0.30;21.00
1429;DHT22;708;51.442;7.016;2023-02-26T06:04:04;0.20;30.40
1429;DHT22;708;51.442;7.016;2023-02-26T06:06:31;0.30;41.40
1429;DHT22;708;51.442;7.016;2023-02-26T06:08:58;0.30;31.10
1429;DHT22;708;51.442;7.016;2023-02-26T06:11:25;0.30;14.40
1429;DHT22;708;51.442;7.016;2023-02-26T06:13:52;0.30;10.90
1429;DHT22;708;51.442;7.016;2023-02-26T06:16:19;0.20;11.90
1429;DHT22;708;51.442;7.016;2023-02-26T06:18:46;0.30;20.10
1429;DHT22;708;51.442;7.016;2023-02-26T06:21:14;0.30;22.80
1429;DHT22;708;51.442;7.016;2023-02-26T06:23:41;0.30;1.00
1429;DHT22;708;51.442;7.016;2023-02-26T06:26:08;0.30;15.10
1429;DHT22;708;51.442;7.016;2023-02-26T06:28:34;0.30;3.40
1429;DHT22;708;51.442;7.016;2023-02-26T06:31:01;0.30;25.20
1429;DHT22;708;51.442;7.016;2023-02-26T06:33:29;0.30;1.00
1429;DHT22;708;51.442;7.016;2023-02-26T06:35:55;0.40;1.00
1429;DHT22;708;51.442;7.016;2023-02-26T06:38:26;0.40;1.00
1429;DHT22;708;51.442;7.016;2023-02-26T06:40:52;0.40;1.00
1429;DHT22;708;51.442;7.016;2023-02-26T06:43:19;0.40;1.00
1429;DHT22;708;51.442;7.016;2023-02-26T06:45:46;0.40;1.00
1429;DHT22;708;51.442;7.016;2023-02-26T06:48:14;0.40;1.00
1429;DHT22;708;51.442;7.016;2023-02-26T06:50:41;0.40;1.00
1429;DHT22;708;51.442;7.016;2023-02-26T06:53:08;0.50;1.00
1429;DHT22;708;51.442;7.016;2023-02-26T06:55:42;0.50;1.00
1429;DHT22;708;51.442;7.016;2023-02-26T06:58:09;0.50;1.00
1429;DHT22;708;51.442;7.016;2023-02-26T07:00:36;0.60;1.00
1429;DHT22;708;51.442;7.016;2023-02-26T07:03:05;0.60;1.00
1429;DHT22;708;51.442;7.016;2023-02-26T07:05:32;0.70;1.00
1429;DHT22;708;51.442;7.016;2023-02-26T07:07:58;0.90;1.00
1429;DHT22;708;51.442;7.016;2023-02-26T07:10:25;1.40;1.00
1429;DHT22;708;51.442;7.016;2023-02-26T07:12:53;2.20;99.90
1429;DHT22;708;51.442;7.016;2023-02-26T07:15:20;3.20;99.90
1429;DHT22;708;51.442;7.016;2023-02-26T07:17:47;4.00;99.90
1429;DHT22;708;51.442;7.016;2023-02-26T07:20:14;4.80;99.90
1429;DHT22;708;51.442;7.016;2023-02-26T07:22:40;5.60;99.90
1429;DHT22;708;51.442;7.016;2023-02-26T07:25:08;6.40;99.90
1429;DHT22;708;51.442;7.016;2023-02-26T07:27:35;6.90;99.90
1429;DHT22;708;51.442;7.016;2023-02-26T07:30:05;7.00;99.90
1429;DHT22;708;51.442;7.016;2023-02-26T07:32:33;7.30;99.90
1429;DHT22;708;51.442;7.016;2023-02-26T07:34:59;7.50;99.90
1429;DHT22;708;51.442;7.016;2023-02-26T07:37:26;7.90;99.90
1429;DHT22;708;51.442;7.016;2023-02-26T07:39:54;8.40;99.90
1429;DHT22;708;51.442;7.016;2023-02-26T07:42:21;9.00;99.90
1429;DHT22;708;51.442;7.016;2023-02-26T07:44:47;9.50;99.90
1429;DHT22;708;51.442;7.016;2023-02-26T07:47:16;10.30;99.90
1429;DHT22;708;51.442;7.016;2023-02-26T07:49:43;10.80;99.90
1429;DHT22;708;51.442;7.016;2023-02-26T07:52:09;11.10;99.90
1429;DHT22;708;51.442;7.016;2023-02-26T07:54:36;11.50;99.90
1429;DHT22;708;51.442;7.016;2023-02-26T07:57:03;10.90;99.90
1429;DHT22;708;51.442;7.016;2023-02-26T07:59:30;11.00;99.90
1429;DHT22;708;51.442;7.016;2023-02-26T08:01:57;10.80;99.90
1429;DHT22;708;51.442;7.016;2023-02-26T08:04:26;11.20;99.90
1429;DHT22;708;51.442;7.016;2023-02-26T08:06:52;11.70;99.90
1429;DHT22;708;51.442;7.016;2023-02-26T08:09:21;11.90;99.90
1429;DHT22;708;51.442;7.016;2023-02-26T08:11:51;11.70;99.90
1429;DHT22;708;51.442;7.016;2023-02-26T08:14:18;12.00;99.90
1429;DHT22;708;51.442;7.016;2023-02-26T08:16:45;12.30;99.90
1429;DHT22;708;51.442;7.016;2023-02-26T08:19:11;12.40;99.90
1429;DHT22;708;51.442;7.016;2023-02-26T08:21:40;12.30;99.90
1429;DHT22;708;51.442;7.016;2023-02-26T08:24:06;12.30;99.90
1429;DHT22;708;51.442;7.016;2023-02-26T08:26:34;12.30;99.90
1429;DHT22;708;51.442;7.016;2023-02-26T08:29:02;12.20;99.90
1429;DHT22;708;51.442;7.016;2023-02-26T08:31:28;12.00;99.90
1429;DHT22;708;51.442;7.016;2023-02-26T08:33:56;11.50;99.90
1429;DHT22;708;51.442;7.016;2023-02-26T08:36:23;11.80;99.90
1429;DHT22;708;51.442;7.016;2023-02-26T08:38:52;11.70;99.90
1429;DHT22;708;51.442;7.016;2023-02-26T08:41:19;11.50;99.90
1429;DHT22;708;51.442;7.016;2023-02-26T08:43:46;11.50;99.90
1429;DHT22;708;51.442;7.016;2023-02-26T08:46:13;12.10;99.90
1429;DHT22;708;51.442;7.016;2023-02-26T08:48:40;12.70;99.90
1429;DHT22;708;51.442;7.016;2023-02-26T08:51:06;13.00;99.90
1429;DHT22;708;51.442;7.016;2023-02-26T08:53:33;13.50;99.90
1429;DHT22;708;51.442;7.016;2023-02-26T08:56:01;13.10;99.90
1429;DHT22;708;51.442;7.016;2023-02-26T08:58:28;13.20;99.90
1429;DHT22;708;51.442;7.016;2023-02-26T09:00:55;12.60;99.90
1429;DHT22;708;51.442;7.016;2023-02-26T09:03:21;12.60;99.90
1429;DHT22;708;51.442;7.016;2023-02-26T09:05:49;12.00;99.90
1429;DHT22;708;51.442;7.016;2023-02-26T09:08:16;11.30;99.90
1429;DHT22;708;51.442;7.016;2023-02-26T09:10:45;10.90;99.90
1429;DHT22;708;51.442;7.016;2023-02-26T09:13:13;11.10;99.90
1429;DHT22;708;51.442;7.016;2023-02-26T09:15:40;10.70;99.90
1429;DHT22;708;51.442;7.016;2023-02-26T09:18:07;10.50;99.40
1429;DHT22;708;51.442;7.016;2023-02-26T09:20:40;10.50;99.30
1429;DHT22;708;51.442;7.016;2023-02-26T09:23:07;10.40;99.50
1429;DHT22;708;51.442;7.016;2023-02-26T09:25:34;10.20;98.80
1429;DHT22;708;51.442;7.016;2023-02-26T09:28:00;9.80;99.40
1429;DHT22;708;51.442;7.016;2023-02-26T09:30:29;9.70;99.60
1429;DHT22;708;51.442;7.016;2023-02-26T09:32:55;9.90;99.50
1429;DHT22;708;51.442;7.016;2023-02-26T09:35:22;10.10;99.60
1429;DHT22;708;51.442;7.016;2023-02-26T09:37:49;10.40;98.90
1429;DHT22;708;51.442;7.016;2023-02-26T09:40:23;10.60;99.60
1429;DHT22;708;51.442;7.016;2023-02-26T09:43:07;10.50;98.70
1429;DHT22;708;51.442;7.016;2023-02-26T09:45:41;10.40;98.70
1429;DHT22;708;51.442;7.016;2023-02-26T09:48:11;11.10;99.00
1429;DHT22;708;51.442;7.016;2023-02-26T09:50:46;11.50;98.90
1429;DHT22;708;51.442;7.016;2023-02-26T09:53:18;10.90;98.30
1429;DHT22;708;51.442;7.016;2023-02-26T09:55:48;10.70;97.90
1429;DHT22;708;51.442;7.016;2023-02-26T09:58:21;10.70;98.20
1429;DHT22;708;51.442;7.016;2023-02-26T10:00:57;10.20;98.10
1429;DHT22;708;51.442;7.016;2023-02-26T10:03:29;10.00;97.90
1429;DHT22;708;51.442;7.016;2023-02-26T10:06:14;9.50;98.60
1429;DHT22;708;51.442;7.016;2023-02-26T10:08:49;8.90;93.40
1429;DHT22;708;51.442;7.016;2023-02-26T10:11:22;8.40;97.90
1429;DHT22;708;51.442;7.016;2023-02-26T10:13:55;7.50;98.30
1429;DHT22;708;51.442;7.016;2023-02-26T10:16:27;6.70;98.30
1429;DHT22;708;51.442;7.016;2023-02-26T10:19:01;6.00;99.30
1429;DHT22;708;51.442;7.016;2023-02-26T10:21:33;5.70;99.80
1429;DHT22;708;51.442;7.016;2023-02-26T10:24:05;5.60;99.90
1429;DHT22;708;51.442;7.016;2023-02-26T10:26:36;5.50;99.90
1429;DHT22;708;51.442;7.016;2023-02-26T10:29:13;5.40;99.90
1429;DHT22;708;51.442;7.016;2023-02-26T10:31:56;5.20;99.90
1429;DHT22;708;51.442;7.016;2023-02-26T10:34:29;5.20;99.90
1429;DHT22;708;51.442;7.016;2023-02-26T10:37:03;4.90;99.90
1429;DHT22;708;51.442;7.016;2023-02-26T10:39:41;4.80;99.90
1429;DHT22;708;51.442;7.016;2023-02-26T10:42:12;4.80;99.90
1429;DHT22;708;51.442;7.016;2023-02-26T10:44:46;4.70;99.90
1429;DHT22;708;51.442;7.016;2023-02-26T10:47:23;4.60;99.90
1429;DHT22;708;51.442;7.016;2023-02-26T10:49:58;4.60;99.90
1429;DHT22;708;51.442;7.016;2023-02-26T10:52:29;4.80;99.90
1429;DHT22;708;51.442;7.016;2023-02-26T10:55:17;4.90;99.90
1429;DHT22;708;51.442;7.016;2023-02-26T10:57:49;4.80;99.90
1429;DHT22;708;51.442;7.016;2023-02-26T11:00:19;4.60;99.90
1429;DHT22;708;51.442;7.016;2023-02-26T11:02:49;4.60;99.90
1429;DHT22;708;51.442;7.016;2023-02-26T11:05:19;4.60;99.90
1429;DHT22;708;51.442;7.016;2023-02-26T11:07:49;4.70;99.90
1429;DHT22;708;51.442;7.016;2023-02-26T11:10:19;4.60;99.90
1429;DHT22;708;51.442;7.016;2023-02-26T11:12:46;4.50;99.90
1429;DHT22;708;51.442;7.016;2023-02-26T11:15:16;4.50;99.90
1429;DHT22;708;51.442;7.016;2023-02-26T11:17:45;4.40;99.90
1429;DHT22;708;51.442;7.016;2023-02-26T11:20:18;4.30;99.90
1429;DHT22;708;51.442;7.016;2023-02-26T11:22:49;4.40;99.90
1429;DHT22;708;51.442;7.016;2023-02-26T11:25:22;4.40;99.90
1429;DHT22;708;51.442;7.016;2023-02-26T11:27:52;4.50;99.90
1429;DHT22;708;51.442;7.016;2023-02-26T11:30:24;4.50;99.90
1429;DHT22;708;51.442;7.016;2023-02-26T11:32:55;4.50;99.90
1429;DHT22;708;51.442;7.016;2023-02-26T11:35:25;4.40;99.90
1429;DHT22;708;51.442;7.016;2023-02-26T11:37:55;4.30;99.90
1429;DHT22;708;51.442;7.016;2023-02-26T11:40:29;4.30;99.60
1429;DHT22;708;51.442;7.016;2023-02-26T11:43:02;4.30;99.90
1429;DHT22;708;51.442;7.016;2023-02-26T11:45:33;4.40;99.90
1429;DHT22;708;51.442;7.016;2023-02-26T11:48:03;4.40;99.90
1429;DHT22;708;51.442;7.016;2023-02-26T11:50:37;4.60;99.90
1429;DHT22;708;51.442;7.016;2023-02-26T11:53:09;4.60;99.40
1429;DHT22;708;51.442;7.016;2023-02-26T11:55:43;4.60;99.10
1429;DHT22;708;51.442;7.016;2023-02-26T11:58:17;4.60;99.50
1429;DHT22;708;51.442;7.016;2023-02-26T12:00:44;4.70;98.80
1429;DHT22;708;51.442;7.016;2023-02-26T12:03:15;4.80;99.40
1429;DHT22;708;51.442;7.016;2023-02-26T12:05:43;4.90;99.60
1429;DHT22;708;51.442;7.016;2023-02-26T12:08:17;5.10;99.40
1429;DHT22;708;51.442;7.016;2023-02-26T12:10:51;5.20;99.90
1429;DHT22;708;51.442;7.016;2023-02-26T12:13:29;5.20;99.00
1429;DHT22;708;51.442;7.016;2023-02-26T12:16:02;5.10;98.90
1429;DHT22;708;51.442;7.016;2023-02-26T12:18:44;5.10;98.60
1429;DHT22;708;51.442;7.016;2023-02-26T12:21:27;5.10;98.80
1429;DHT22;708;51.442;7.016;2023-02-26T12:24:18;5.20;99.20
1429;DHT22;708;51.442;7.016;2023-02-26T12:26:53;5.20;99.10
1429;DHT22;708;51.442;7.016;2023-02-26T12:29:50;5.20;99.30
1429;DHT22;708;51.442;7.016;2023-02-26T12:32:26;5.00;99.20
1429;DHT22;708;51.442;7.016;2023-02-26T12:38:27;4.90;99.10
1429;DHT22;708;51.442;7.016;2023-02-26T12:41:32;4.90;99.30
1429;DHT22;708;51.442;7.016;2023-02-26T12:44:15;4.80;99.40
1429;DHT22;708;51.442;7.016;2023-02-26T12:46:52;4.70;99.10
1429;DHT22;708;51.442;7.016;2023-02-26T12:52:47;4.90;99.10
1429;DHT22;708;51.442;7.016;2023-02-26T12:55:25;4.80;98.90
1429;DHT22;708;51.442;7.016;2023-02-26T12:58:16;4.90;98.80
1429;DHT22;708;51.442;7.016;2023-02-26T13:00:58;5.10;99.10
1429;DHT22;708;51.442;7.016;2023-02-26T13:03:43;5.10;98.60
1429;DHT22;708;51.442;7.016;2023-02-26T13:09:26;5.00;98.40
1429;DHT22;708;51.442;7.016;2023-02-26T13:12:06;4.90;97.60
1429;DHT22;708;51.442;7.016;2023-02-26T13:14:46;4.90;98.20
1429;DHT22;708;51.442;7.016;2023-02-26T13:17:24;4.90;97.80
1429;DHT22;708;51.442;7.016;2023-02-26T13:19:55;4.90;97.60
1429;DHT22;708;51.442;7.016;2023-02-26T13:22:25;5.00;98.10
1429;DHT22;708;51.442;7.016;2023-02-26T13:24:58;5.00;97.60
1429;DHT22;708;51.442;7.016;2023-02-26T13:27:31;5.00;97.70
1429;DHT22;708;51.442;7.016;2023-02-26T13:30:12;5.00;98.00
1429;DHT22;708;51.442;7.016;2023-02-26T13:32:41;5.10;98.00
1429;DHT22;708;51.442;7.016;2023-02-26T13:35:18;5.30;97.80
1429;DHT22;708;51.442;7.016;2023-02-26T13:37:50;5.30;97.20
1429;DHT22;708;51.442;7.016;2023-02-26T13:40:37;5.30;96.80
1429;DHT22;708;51.442;7.016;2023-02-26T13:43:15;5.50;99.90
1429;DHT22;708;51.442;7.016;2023-02-26T13:45:51;5.50;96.40
1429;DHT22;708;51.442;7.016;2023-02-26T13:48:33;5.50;96.30
1429;DHT22;708;51.442;7.016;2023-02-26T13:51:06;5.40;96.80
1429;DHT22;708;51.442;7.016;2023-02-26T13:53:52;5.30;96.30
1429;DHT22;708;51.442;7.016;2023-02-26T13:56:53;5.40;96.70
1429;DHT22;708;51.442;7.016;2023-02-26T13:59:37;5.50;96.70
1429;DHT22;708;51.442;7.016;2023-02-26T14:02:42;5.40;96.30
1429;DHT22;708;51.442;7.016;2023-02-26T14:05:35;5.40;96.50
1429;DHT22;708;51.442;7.016;2023-02-26T14:08:41;5.50;96.60
1429;DHT22;708;51.442;7.016;2023-02-26T14:11:26;5.50;96.90
1429;DHT22;708;51.442;7.016;2023-02-26T14:14:11;5.40;96.50
1429;DHT22;708;51.442;7.016;2023-02-26T14:16:41;5.30;97.10
1429;DHT22;708;51.442;7.016;2023-02-26T14:19:26;5.20;96.30
1429;DHT22;708;51.442;7.016;2023-02-26T14:21:54;5.20;96.70
1429;DHT22;708;51.442;7.016;2023-02-26T14:24:29;5.20;97.10
1429;DHT22;708;51.442;7.016;2023-02-26T14:27:29;5.30;97.90
1429;DHT22;708;51.442;7.016;2023-02-26T14:30:00;5.30;96.90
1429;DHT22;708;51.442;7.016;2023-02-26T14:32:32;5.30;97.10
1429;DHT22;708;51.442;7.016;2023-02-26T14:35:15;5.20;97.30
1429;DHT22;708;51.442;7.016;2023-02-26T14:37:44;5.20;97.00
1429;DHT22;708;51.442;7.016;2023-02-26T14:40:16;5.20;96.60
1429;DHT22;708;51.442;7.016;2023-02-26T14:42:51;5.30;96.80
1429;DHT22;708;51.442;7.016;2023-02-26T14:45:27;5.30;97.10
1429;DHT22;708;51.442;7.016;2023-02-26T14:47:58;5.20;96.70
1429;DHT22;708;51.442;7.016;2023-02-26T14:50:28;5.10;97.10
1429;DHT22;708;51.442;7.016;2023-02-26T14:53:37;5.00;96.60
1429;DHT22;708;51.442;7.016;2023-02-26T14:56:10;5.10;97.00
1429;DHT22;708;51.442;7.016;2023-02-26T14:58:49;5.10;97.30
1429;DHT22;708;51.442;7.016;2023-02-26T15:01:29;5.20;97.70
1429;DHT22;708;51.442;7.016;2023-02-26T15:04:20;5.20;97.20
1429;DHT22;708;51.442;7.016;2023-02-26T15:07:01;5.40;97.10
1429;DHT22;708;51.442;7.016;2023-02-26T15:09:36;5.40;97.40
1429;DHT22;708;51.442;7.016;2023-02-26T15:12:15;5.40;96.60
1429;DHT22;708;51.442;7.016;2023-02-26T15:15:02;5.40;97.00
1429;DHT22;708;51.442;7.016;2023-02-26T15:20:32;5.30;97.10
1429;DHT22;708;51.442;7.016;2023-02-26T15:23:12;5.30;96.80
1429;DHT22;708;51.442;7.016;2023-02-26T15:25:44;5.20;96.60
1429;DHT22;708;51.442;7.016;2023-02-26T15:28:18;5.20;97.20
1429;DHT22;708;51.442;7.016;2023-02-26T15:30:48;5.20;96.90
1429;DHT22;708;51.442;7.016;2023-02-26T15:33:17;5.10;96.70
1429;DHT22;708;51.442;7.016;2023-02-26T15:35:47;5.10;97.50
1429;DHT22;708;51.442;7.016;2023-02-26T15:38:15;5.10;97.30
1429;DHT22;708;51.442;7.016;2023-02-26T15:40:42;5.10;97.10
1429;DHT22;708;51.442;7.016;2023-02-26T15:43:14;5.10;97.40
1429;DHT22;708;51.442;7.016;2023-02-26T15:45:44;5.10;96.60
1429;DHT22;708;51.442;7.016;2023-02-26T15:48:14;5.10;97.00
1429;DHT22;708;51.442;7.016;2023-02-26T15:50:43;5.10;97.50
1429;DHT22;708;51.442;7.016;2023-02-26T15:53:17;5.10;97.30
1429;DHT22;708;51.442;7.016;2023-02-26T15:55:47;5.20;98.30
1429;DHT22;708;51.442;7.016;2023-02-26T15:58:20;5.20;97.40
1429;DHT22;708;51.442;7.016;2023-02-26T16:00:52;5.20;97.30
1429;DHT22;708;51.442;7.016;2023-02-26T16:03:25;5.20;97.00
1429;DHT22;708;51.442;7.016;2023-02-26T16:05:53;5.20;96.60
1429;DHT22;708;51.442;7.016;2023-02-26T16:08:22;5.20;97.30
1429;DHT22;708;51.442;7.016;2023-02-26T16:10:50;5.10;97.00
1429;DHT22;708;51.442;7.016;2023-02-26T16:13:26;5.10;97.40
1429;DHT22;708;51.442;7.016;2023-02-26T16:15:58;5.20;97.50
1429;DHT22;708;51.442;7.016;2023-02-26T16:18:25;5.20;97.60
1429;DHT22;708;51.442;7.016;2023-02-26T16:20:55;5.10;97.60
1429;DHT22;708;51.442;7.016;2023-02-26T16:23:27;5.20;98.00
1429;DHT22;708;51.442;7.016;2023-02-26T16:25:59;5.20;98.10
1429;DHT22;708;51.442;7.016;2023-02-26T16:28:29;5.10;97.70
1429;DHT22;708;51.442;7.016;2023-02-26T16:30:58;5.00;97.50
1429;DHT22;708;51.442;7.016;2023-02-26T16:33:30;5.00;98.00
1429;DHT22;708;51.442;7.016;2023-02-26T16:36:03;4.90;97.90
1429;DHT22;708;51.442;7.016;2023-02-26T16:38:42;4.90;98.10
1429;DHT22;708;51.442;7.016;2023-02-26T16:41:11;4.90;98.20
1429;DHT22;708;51.442;7.016;2023-02-26T16:43:52;4.90;98.30
1429;DHT22;708;51.442;7.016;2023-02-26T16:46:29;4.80;98.10
1429;DHT22;708;51.442;7.016;2023-02-26T16:48:59;4.80;98.50
1429;DHT22;708;51.442;7.016;2023-02-26T16:51:30;4.70;98.50
1429;DHT22;708;51.442;7.016;2023-02-26T16:54:00;4.70;98.50
1429;DHT22;708;51.442;7.016;2023-02-26T16:56:31;4.70;98.40
1429;DHT22;708;51.442;7.016;2023-02-26T16:59:03;4.70;98.60
1429;DHT22;708;51.442;7.016;2023-02-26T17:01:34;4.60;98.30
1429;DHT22;708;51.442;7.016;2023-02-26T17:04:02;4.50;98.50
1429;DHT22;708;51.442;7.016;2023-02-26T17:06:30;4.50;98.20
1429;DHT22;708;51.442;7.016;2023-02-26T17:09:01;4.50;98.40
1429;DHT22;708;51.442;7.016;2023-02-26T17:11:37;4.50;98.60
1429;DHT22;708;51.442;7.016;2023-02-26T17:14:13;4.50;98.10
1429;DHT22;708;51.442;7.016;2023-02-26T17:16:43;4.40;98.50
1429;DHT22;708;51.442;7.016;2023-02-26T17:19:10;4.40;98.10